Time;durP1;ratioP1;P1;durP2;ratioP2;P2;SDS_P1;SDS_P2;PMS_P1;PMS_P2;Temp;Humidity;BMP_temperature;BMP_pressure;BME280_temperature;BME280_humidity;BME280_pressure;Samples;Min_cycle;Max_cycle;Signal;HPM_P1;HPM_P2
2022/05/31 09:59:13;;;;;;;6.68;4.63;;;14.40;99.90;;;;;;7284038;19;20339;-80
2022/05/31 10:01:46;;;;;;;6.88;4.13;;;14.50;99.90;;;;;;7213398;19;20171;-81
2022/05/31 10:04:27;;;;;;;6.82;3.83;;;14.40;99.90;;;;;;7366555;19;124770;-82
2022/05/31 10:07:03;;;;;;;6.53;4.20;;;14.50;99.90;;;;;;7393494;19;20022;-81
2022/05/31 10:09:36;;;;;;;7.45;4.05;;;14.40;99.90;;;;;;7385364;19;20015;-82
2022/05/31 10:12:14;;;;;;;7.38;4.55;;;14.70;99.90;;;;;;7393260;19;20672;-84
2022/05/31 10:14:56;;;;;;;6.38;3.90;;;14.80;99.90;;;;;;7376865;19;20505;-81
2022/05/31 10:17:46;;;;;;;4.88;3.20;;;14.90;99.90;;;;;;7374679;19;20045;-82
2022/05/31 10:20:25;;;;;;;5.45;3.72;;;15.10;99.90;;;;;;7397023;19;20038;-82
2022/05/31 10:22:57;;;;;;;4.82;3.60;;;14.80;99.90;;;;;;7386753;19;20018;-82
2022/05/31 10:25:29;;;;;;;6.53;3.65;;;14.80;99.90;;;;;;7393303;19;20042;-82
2022/05/31 10:28:01;;;;;;;5.88;3.63;;;14.90;99.90;;;;;;7388874;19;20025;-82
2022/05/31 10:30:35;;;;;;;4.97;3.53;;;14.80;99.90;;;;;;7368259;19;20510;-81
2022/05/31 10:33:10;;;;;;;5.25;3.15;;;14.80;99.90;;;;;;7387378;19;20022;-81
2022/05/31 10:35:46;;;;;;;4.45;2.90;;;15.00;99.90;;;;;;7391481;19;20018;-81
2022/05/31 10:38:31;;;;;;;4.90;2.75;;;15.00;99.90;;;;;;7393366;19;20029;-81
2022/05/31 10:43:50;;;;;;;3.35;2.28;;;15.20;99.90;;;;;;7340517;19;20043;-73
2022/05/31 10:47:00;;;;;;;3.88;2.50;;;15.50;99.10;;;;;;7373286;19;20006;-74
2022/05/31 11:04:00;;;;;;;2.67;2.25;;;15.10;98.60;;;;;;7326182;19;20048;-84
2022/05/31 11:07:04;;;;;;;3.60;2.30;;;15.20;99.90;;;;;;7372316;19;20026;-75
2022/05/31 11:12:42;;;;;;;5.78;2.80;;;15.40;99.90;;;;;;7376776;19;20032;-74
2022/05/31 11:21:46;;;;;;;5.70;2.83;;;15.40;99.50;;;;;;7367240;19;20022;-71
2022/05/31 11:24:34;;;;;;;6.07;2.80;;;15.60;99.90;;;;;;7389827;19;20019;-73
2022/05/31 11:27:16;;;;;;;4.40;2.70;;;15.60;99.40;;;;;;7389999;19;20018;-73
2022/05/31 11:30:11;;;;;;;3.67;2.30;;;15.70;98.70;;;;;;7386624;19;20019;-74
2022/05/31 11:33:13;;;;;;;5.18;3.05;;;15.80;98.40;;;;;;7388331;19;20078;-73
2022/05/31 11:35:54;;;;;;;5.90;2.90;;;15.70;97.90;;;;;;7391179;19;20011;-73
2022/05/31 11:38:34;;;;;;;6.53;2.95;;;15.80;97.90;;;;;;7392541;19;20020;-73
2022/05/31 11:41:09;;;;;;;4.85;2.95;;;15.60;97.10;;;;;;7393088;19;20018;-73
2022/05/31 11:44:00;;;;;;;4.10;2.60;;;15.40;97.90;;;;;;7388837;19;20014;-73
2022/05/31 11:46:35;;;;;;;4.95;2.60;;;15.40;97.30;;;;;;7389987;19;20102;-73
2022/05/31 11:49:06;;;;;;;3.35;2.33;;;15.40;97.90;;;;;;7390971;19;20074;-73
2022/05/31 11:51:56;;;;;;;4.63;2.28;;;15.40;98.10;;;;;;7391177;19;20019;-73
2022/05/31 11:54:46;;;;;;;3.88;2.70;;;15.50;98.90;;;;;;7397668;19;20086;-73
2022/05/31 11:57:42;;;;;;;5.07;2.38;;;15.30;99.30;;;;;;7399801;19;20132;-73
2022/05/31 12:00:15;;;;;;;4.32;2.83;;;15.80;96.90;;;;;;7397460;19;20021;-73
2022/05/31 12:02:50;;;;;;;3.67;2.58;;;15.50;97.60;;;;;;7068774;19;3009473;-72
2022/05/31 12:05:24;;;;;;;4.18;2.65;;;15.40;96.20;;;;;;7398281;19;20025;-75
2022/05/31 12:08:04;;;;;;;7.10;2.38;;;15.30;98.20;;;;;;7399638;19;20022;-73
2022/05/31 12:10:42;;;;;;;4.60;2.88;;;15.80;96.40;;;;;;7397946;19;20059;-74
2022/05/31 12:13:15;;;;;;;4.38;2.67;;;16.00;96.50;;;;;;7397550;19;20018;-76
2022/05/31 12:15:47;;;;;;;5.88;3.30;;;16.00;96.40;;;;;;7400791;19;20402;-73
2022/05/31 12:18:23;;;;;;;5.40;2.50;;;16.00;96.40;;;;;;7396145;19;20021;-72
2022/05/31 12:20:58;;;;;;;4.90;2.75;;;16.20;96.90;;;;;;7390183;19;20018;-74
2022/05/31 12:23:34;;;;;;;5.25;2.50;;;16.50;97.40;;;;;;7400031;19;20014;-74
2022/05/31 12:26:07;;;;;;;6.03;3.00;;;16.30;95.60;;;;;;7397302;19;20026;-74
2022/05/31 12:28:41;;;;;;;4.18;2.53;;;16.40;94.90;;;;;;7397211;19;20019;-74
2022/05/31 12:31:16;;;;;;;5.30;2.40;;;16.50;95.80;;;;;;7399550;19;20022;-74
2022/05/31 12:33:46;;;;;;;3.28;2.40;;;16.40;95.90;;;;;;7398044;19;20014;-73
2022/05/31 12:36:17;;;;;;;5.55;3.17;;;16.60;95.30;;;;;;7399127;19;20022;-73
2022/05/31 12:38:57;;;;;;;5.72;2.75;;;16.70;95.00;;;;;;7399505;19;20011;-74
2022/05/31 12:41:41;;;;;;;5.63;2.63;;;16.70;95.20;;;;;;7398322;19;20019;-74
2022/05/31 12:44:16;;;;;;;4.35;2.80;;;16.90;94.10;;;;;;7398980;19;20078;-74
2022/05/31 12:46:48;;;;;;;5.70;2.78;;;16.90;93.40;;;;;;7399370;19;20022;-74
2022/05/31 12:49:27;;;;;;;5.60;2.65;;;16.80;92.50;;;;;;7398804;19;20019;-74
2022/05/31 12:52:40;;;;;;;3.65;2.40;;;16.60;90.70;;;;;;7398915;19;20018;-74
2022/05/31 12:55:15;;;;;;;4.70;2.30;;;16.70;90.70;;;;;;7398820;19;20050;-73
2022/05/31 13:00:42;;;;;;;4.03;2.00;;;16.50;91.70;;;;;;7398510;19;20294;-74
2022/05/31 13:03:41;;;;;;;3.50;2.17;;;16.50;91.60;;;;;;7396972;19;20359;-75
2022/05/31 13:06:13;;;;;;;5.82;2.25;;;16.10;91.60;;;;;;7397760;19;20011;-74
2022/05/31 13:08:59;;;;;;;4.43;2.38;;;16.40;91.50;;;;;;7395983;19;20014;-74
2022/05/31 13:20:23;;;;;;;2.72;1.73;;;16.20;91.00;;;;;;7395764;19;20029;-74
2022/05/31 13:22:57;;;;;;;2.83;2.00;;;16.20;91.70;;;;;;7395845;19;20032;-74
2022/05/31 13:25:30;;;;;;;3.70;2.10;;;16.10;89.80;;;;;;7397860;19;20030;-74
2022/05/31 13:28:01;;;;;;;5.57;2.05;;;16.00;89.90;;;;;;7395662;19;20039;-75
2022/05/31 13:30:37;;;;;;;3.13;2.10;;;15.90;90.50;;;;;;7397666;19;20011;-75
2022/05/31 13:33:14;;;;;;;3.47;1.88;;;15.80;90.70;;;;;;7396910;19;20052;-75
2022/05/31 13:35:43;;;;;;;4.72;2.35;;;15.90;90.10;;;;;;7397201;19;20387;-74
2022/05/31 13:38:16;;;;;;;3.70;2.13;;;15.90;89.20;;;;;;7396007;19;20010;-74
2022/05/31 13:40:49;;;;;;;3.15;2.20;;;15.80;88.60;;;;;;7396330;19;20011;-74
2022/05/31 13:43:24;;;;;;;3.45;1.90;;;15.80;90.10;;;;;;7397999;19;20016;-74
2022/05/31 13:45:59;;;;;;;5.75;2.28;;;15.70;90.20;;;;;;7395715;19;20021;-74
2022/05/31 13:48:30;;;;;;;3.70;2.40;;;14.40;90.00;;;;;;7396714;19;20042;-74
2022/05/31 13:51:02;;;;;;;5.10;2.40;;;15.70;90.90;;;;;;7395368;19;20025;-74
2022/05/31 13:53:38;;;;;;;7.13;2.60;;;15.80;90.60;;;;;;7395284;19;20021;-74
2022/05/31 13:56:07;;;;;;;4.10;2.40;;;15.90;90.90;;;;;;7396720;19;20544;-74
2022/05/31 13:58:40;;;;;;;3.92;2.50;;;15.60;90.20;;;;;;7395922;19;20070;-74
2022/05/31 14:01:28;;;;;;;4.00;2.40;;;15.70;88.90;;;;;;7395419;19;20486;-74
2022/05/31 14:03:58;;;;;;;6.00;2.83;;;15.90;89.20;;;;;;7395854;19;20348;-74
2022/05/31 14:06:32;;;;;;;5.25;3.10;;;15.80;87.70;;;;;;7396048;19;20014;-75
2022/05/31 14:09:02;;;;;;;4.97;2.50;;;15.40;90.90;;;;;;7395723;19;20022;-74
2022/05/31 14:11:36;;;;;;;5.25;2.70;;;15.90;90.00;;;;;;7395722;19;20078;-74
2022/05/31 14:14:15;;;;;;;4.53;2.50;;;15.80;90.10;;;;;;7394310;19;20679;-74
2022/05/31 14:16:50;;;;;;;3.05;2.15;;;16.00;91.30;;;;;;7391588;19;20036;-74
2022/05/31 14:19:20;;;;;;;5.10;3.25;;;15.70;90.30;;;;;;7395777;19;20021;-74
2022/05/31 14:21:51;;;;;;;5.00;2.97;;;16.10;92.30;;;;;;7392915;19;20018;-75
2022/05/31 14:24:23;;;;;;;4.25;2.97;;;15.60;91.10;;;;;;7396165;19;20014;-74
2022/05/31 14:26:54;;;;;;;5.00;2.20;;;15.70;91.60;;;;;;7395529;19;20022;-74
2022/05/31 14:29:31;;;;;;;4.80;2.75;;;15.60;92.30;;;;;;7395613;19;20022;-74
2022/05/31 14:32:20;;;;;;;4.78;3.10;;;15.80;90.90;;;;;;7395082;19;20044;-74
2022/05/31 14:34:52;;;;;;;4.97;2.90;;;15.40;91.70;;;;;;7395661;19;20027;-74
2022/05/31 14:37:38;;;;;;;5.50;2.50;;;15.60;90.80;;;;;;7395170;19;20019;-74
2022/05/31 14:40:12;;;;;;;5.90;3.05;;;15.50;91.30;;;;;;7396721;19;20019;-75
2022/05/31 14:42:43;;;;;;;4.68;2.65;;;15.70;91.00;;;;;;7389357;19;20014;-74
2022/05/31 14:45:14;;;;;;;4.65;2.50;;;15.60;91.90;;;;;;7393246;19;20404;-71
2022/05/31 14:47:45;;;;;;;3.53;2.47;;;15.70;90.50;;;;;;7392806;19;20475;-72
2022/05/31 14:50:27;;;;;;;6.05;2.80;;;15.70;91.60;;;;;;7393809;19;20021;-73
2022/05/31 14:52:59;;;;;;;3.95;2.53;;;15.20;92.50;;;;;;7392856;19;20382;-73
2022/05/31 14:55:44;;;;;;;4.70;2.55;;;15.30;91.20;;;;;;7391937;19;20011;-72
2022/05/31 15:01:13;;;;;;;5.10;2.60;;;15.30;91.60;;;;;;7388884;19;20018;-72
2022/05/31 15:03:48;;;;;;;5.05;2.67;;;14.90;92.00;;;;;;7395651;19;20330;-73
2022/05/31 15:06:30;;;;;;;4.82;3.05;;;15.30;91.40;;;;;;7393243;19;20021;-72
2022/05/31 15:09:10;;;;;;;5.35;2.80;;;15.70;91.70;;;;;;7390770;19;20018;-72
2022/05/31 15:19:48;;;;;;;5.25;2.30;;;15.30;90.80;;;;;;7392413;19;20022;-77
2022/05/31 15:22:18;;;;;;;7.97;2.17;;;15.40;93.10;;;;;;7390279;19;20018;-78
2022/05/31 15:24:50;;;;;;;1896.38;213.05;;;15.60;93.90;;;;;;7393308;19;20085;-76
2022/05/31 15:27:24;;;;;;;69.30;6.82;;;15.70;93.10;;;;;;7388254;19;20011;-78
2022/05/31 15:29:54;;;;;;;9.50;2.60;;;15.70;91.80;;;;;;7398091;19;20021;-83
2022/05/31 15:32:25;;;;;;;734.15;52.40;;;15.70;90.40;;;;;;7400427;19;20015;-80
2022/05/31 15:34:56;;;;;;;7.82;2.60;;;15.90;91.50;;;;;;7396537;19;20023;-83
2022/05/31 15:37:29;;;;;;;4.75;2.30;;;16.10;90.20;;;;;;7398719;19;20025;-78
2022/05/31 15:39:59;;;;;;;5.00;2.50;;;16.10;90.10;;;;;;7397261;19;20428;-79
2022/05/31 15:42:28;;;;;;;4.18;2.45;;;16.20;88.40;;;;;;7400292;19;20022;-79
2022/05/31 15:44:57;;;;;;;5.40;2.35;;;16.00;85.80;;;;;;7401016;19;20070;-78
2022/05/31 15:47:26;;;;;;;5.93;2.60;;;15.90;87.40;;;;;;7396055;19;20034;-80
2022/05/31 15:49:57;;;;;;;6.20;2.30;;;15.90;85.20;;;;;;7394600;19;20014;-80
2022/05/31 15:52:31;;;;;;;4.82;2.38;;;15.60;89.00;;;;;;7400244;19;20404;-79
2022/05/31 15:55:02;;;;;;;4.00;2.35;;;16.00;86.10;;;;;;7394620;19;20019;-80
2022/05/31 15:57:36;;;;;;;5.18;2.50;;;16.20;86.40;;;;;;7398488;19;20014;-80
2022/05/31 16:00:08;;;;;;;4.30;2.40;;;16.20;88.20;;;;;;7399252;19;20022;-80
2022/05/31 16:02:37;;;;;;;3.30;2.22;;;16.20;89.90;;;;;;7400603;19;20022;-79
2022/05/31 16:05:09;;;;;;;5.05;2.40;;;16.30;86.80;;;;;;7397094;19;20022;-80
2022/05/31 16:07:43;;;;;;;7.50;2.78;;;16.10;87.40;;;;;;7400718;19;20117;-84
2022/05/31 16:10:15;;;;;;;3.90;2.47;;;16.20;85.90;;;;;;7400300;19;20359;-83
2022/05/31 16:12:46;;;;;;;4.88;2.30;;;16.20;85.60;;;;;;7395042;19;20685;-80
2022/05/31 16:15:15;;;;;;;3.42;1.98;;;16.20;86.30;;;;;;7390333;19;20499;-80
2022/05/31 16:17:45;;;;;;;5.10;2.35;;;16.30;89.20;;;;;;7400517;19;20018;-80
2022/05/31 16:20:26;;;;;;;4.88;2.30;;;16.30;90.60;;;;;;7399035;19;20021;-83
2022/05/31 16:22:57;;;;;;;4.70;2.42;;;16.30;88.80;;;;;;7396636;19;20721;-84
2022/05/31 16:25:28;;;;;;;4.25;2.30;;;16.30;89.70;;;;;;7399898;19;20015;-81
2022/05/31 16:28:00;;;;;;;4.72;2.25;;;16.80;91.80;;;;;;7399144;19;20014;-81
2022/05/31 16:30:46;;;;;;;2.92;2.10;;;16.20;90.40;;;;;;7400472;19;20099;-79
2022/05/31 16:33:16;;;;;;;4.07;2.08;;;16.30;91.10;;;;;;7383524;19;20680;-80
2022/05/31 16:35:49;;;;;;;4.72;2.10;;;16.10;92.90;;;;;;7388233;19;20078;-81
2022/05/31 16:41:13;;;;;;;4.15;2.33;;;15.90;92.90;;;;;;7399291;19;20022;-76
2022/05/31 16:43:45;;;;;;;3.78;2.25;;;16.20;91.20;;;;;;7399911;19;20018;-76
2022/05/31 16:46:15;;;;;;;4.18;2.20;;;16.10;91.30;;;;;;7391307;19;20014;-76
2022/05/31 16:48:44;;;;;;;5.00;2.35;;;16.00;92.00;;;;;;7382016;19;20026;-76
2022/05/31 16:51:26;;;;;;;5.22;2.42;;;16.10;92.20;;;;;;7376973;19;20483;-76
2022/05/31 16:53:57;;;;;;;4.55;2.28;;;16.00;91.50;;;;;;7393436;19;21158;-77
2022/05/31 16:56:34;;;;;;;7.07;2.60;;;16.10;91.20;;;;;;7380758;19;20062;-76
2022/05/31 16:59:03;;;;;;;3.55;2.20;;;16.30;92.40;;;;;;7391770;19;20014;-74
2022/05/31 17:01:32;;;;;;;4.45;2.50;;;16.00;91.10;;;;;;7402623;19;20011;-75
2022/05/31 17:04:02;;;;;;;5.22;3.38;;;16.10;91.20;;;;;;7398219;19;20010;-76
2022/05/31 17:14:41;;;;;;;5.30;3.47;;;15.80;93.20;;;;;;7394254;19;20350;-75
2022/05/31 17:17:10;;;;;;;5.32;3.50;;;15.80;95.20;;;;;;7395402;19;20484;-76
2022/05/31 17:19:39;;;;;;;5.95;3.38;;;15.80;96.60;;;;;;7396922;19;20011;-75
2022/05/31 17:22:12;;;;;;;5.35;3.40;;;15.80;98.00;;;;;;7396333;19;20014;-79
2022/05/31 17:24:44;;;;;;;5.88;3.75;;;15.70;98.80;;;;;;7395902;19;20337;-73
2022/05/31 17:27:14;;;;;;;5.57;3.60;;;15.70;99.20;;;;;;7397785;19;20014;-83
2022/05/31 17:29:43;;;;;;;12.82;6.28;;;15.80;99.40;;;;;;7397936;19;20010;-74
2022/05/31 17:32:12;;;;;;;90.18;33.33;;;15.80;99.90;;;;;;7393747;19;20020;-74
2022/05/31 17:34:41;;;;;;;134.77;54.20;;;15.80;99.90;;;;;;7395268;19;20022;-75
2022/05/31 17:37:12;;;;;;;33.60;19.48;;;15.70;99.90;;;;;;7397912;19;20022;-81
2022/05/31 17:39:41;;;;;;;11.23;6.82;;;15.90;99.90;;;;;;7395876;19;20498;-82
2022/05/31 17:42:11;;;;;;;11.25;5.90;;;15.90;99.90;;;;;;7396588;19;20086;-78
2022/05/31 17:44:39;;;;;;;10.55;4.70;;;15.90;99.90;;;;;;7395574;19;20471;-77
2022/05/31 17:47:09;;;;;;;8.38;5.22;;;15.90;99.90;;;;;;7395404;19;20027;-77
2022/05/31 17:52:18;;;;;;;8.38;5.03;;;15.70;99.90;;;;;;7423158;19;20365;-84
2022/05/31 17:57:40;;;;;;;7.70;5.57;;;15.90;99.90;;;;;;7406830;19;20347;-82
2022/05/31 18:00:18;;;;;;;17.30;10.40;;;15.80;99.90;;;;;;7415781;19;20527;-79
2022/05/31 18:02:54;;;;;;;13.90;9.43;;;16.00;99.90;;;;;;7433132;19;20405;-77
2022/05/31 18:05:24;;;;;;;11.40;9.20;;;16.20;99.90;;;;;;7425207;19;20025;-74
2022/05/31 18:07:53;;;;;;;13.68;9.65;;;15.60;99.90;;;;;;7429476;19;20018;-73
2022/05/31 18:10:24;;;;;;;13.23;10.32;;;15.70;99.90;;;;;;7430182;19;20086;-73
2022/05/31 18:12:56;;;;;;;10.07;6.28;;;15.50;99.90;;;;;;7426889;19;20073;-73
2022/05/31 18:15:26;;;;;;;14.20;9.90;;;15.40;99.90;;;;;;7427534;19;20039;-73
2022/05/31 18:17:56;;;;;;;14.60;8.82;;;15.30;99.90;;;;;;7279962;19;20052;-73
2022/05/31 18:20:25;;;;;;;10.20;6.95;;;15.20;99.90;;;;;;7424122;19;20039;-73
2022/05/31 18:22:54;;;;;;;8.60;6.47;;;15.10;99.90;;;;;;7429091;19;20014;-73
2022/05/31 18:25:28;;;;;;;6.68;5.40;;;14.90;99.90;;;;;;7428141;19;20022;-73
2022/05/31 18:30:41;;;;;;;7.63;5.60;;;14.70;99.90;;;;;;7429182;19;20023;-73
2022/05/31 18:33:10;;;;;;;6.72;5.28;;;14.80;99.90;;;;;;7426348;19;20078;-74
2022/05/31 18:35:42;;;;;;;8.20;5.10;;;14.70;99.90;;;;;;7426228;19;20372;-74
2022/05/31 18:38:32;;;;;;;7.60;5.45;;;14.50;99.90;;;;;;7427235;19;20018;-74
2022/05/31 18:41:03;;;;;;;11.95;9.68;;;14.60;99.90;;;;;;7428182;19;20015;-74
2022/05/31 18:43:35;;;;;;;11.38;7.90;;;14.60;99.90;;;;;;7429628;19;20492;-75
2022/05/31 18:46:05;;;;;;;51.03;16.73;;;14.50;99.90;;;;;;7426572;19;20018;-75
2022/05/31 18:48:34;;;;;;;93.28;28.20;;;14.40;99.90;;;;;;7427244;19;20034;-81
2022/05/31 18:51:03;;;;;;;73.03;22.40;;;14.40;99.90;;;;;;7420360;19;20070;-76
2022/05/31 18:53:32;;;;;;;76.72;25.27;;;14.30;99.90;;;;;;7428502;19;20025;-76
2022/05/31 18:56:05;;;;;;;44.58;18.67;;;14.30;99.90;;;;;;7426300;19;20020;-76
2022/05/31 18:58:39;;;;;;;14.93;7.70;;;14.20;99.90;;;;;;7426239;19;20018;-76
2022/05/31 19:01:10;;;;;;;9.18;6.45;;;14.50;99.90;;;;;;7426202;19;20489;-75
2022/05/31 19:03:42;;;;;;;9.15;6.03;;;14.10;99.90;;;;;;7428127;19;20468;-75
2022/05/31 19:06:12;;;;;;;8.00;5.43;;;14.00;99.90;;;;;;7426567;19;20380;-75
2022/05/31 19:08:41;;;;;;;8.30;5.30;;;14.10;99.90;;;;;;7400812;19;20019;-75
2022/05/31 19:11:10;;;;;;;7.03;5.90;;;14.10;99.90;;;;;;7395310;19;20018;-75
2022/05/31 19:13:43;;;;;;;7.25;5.80;;;14.00;99.90;;;;;;7398058;19;20082;-75
2022/05/31 19:16:13;;;;;;;8.60;5.97;;;14.10;99.90;;;;;;7397190;19;20022;-74
2022/05/31 19:18:44;;;;;;;8.13;5.78;;;14.00;99.90;;;;;;7395998;19;20014;-74
2022/05/31 19:21:19;;;;;;;7.65;5.18;;;14.10;99.90;;;;;;7396828;19;20010;-74
2022/05/31 19:23:48;;;;;;;6.40;5.60;;;14.10;99.90;;;;;;7398109;19;20334;-74
2022/05/31 19:26:17;;;;;;;7.22;5.70;;;13.80;99.90;;;;;;7396376;19;20026;-74
2022/05/31 19:28:49;;;;;;;7.68;5.22;;;13.70;99.90;;;;;;7394403;19;20018;-74
2022/05/31 19:31:20;;;;;;;7.60;5.65;;;13.70;99.90;;;;;;7394703;19;20006;-74
2022/05/31 19:33:53;;;;;;;7.35;5.00;;;13.70;99.90;;;;;;7397998;19;20017;-74
2022/05/31 19:36:24;;;;;;;6.95;5.22;;;13.70;99.90;;;;;;7392656;19;20469;-74
2022/05/31 19:38:55;;;;;;;7.03;5.35;;;13.70;99.90;;;;;;7396019;19;21717;-74
2022/05/31 19:41:29;;;;;;;6.15;4.90;;;13.60;99.90;;;;;;7396831;19;20028;-74
2022/05/31 19:44:01;;;;;;;9.43;5.50;;;13.50;99.90;;;;;;7397199;19;20018;-74
2022/05/31 19:46:30;;;;;;;9.98;6.78;;;13.40;99.90;;;;;;7396355;19;20022;-74
2022/05/31 19:48:59;;;;;;;10.75;7.45;;;13.60;99.90;;;;;;7396500;19;20021;-74
2022/05/31 19:51:29;;;;;;;12.48;7.68;;;13.40;99.90;;;;;;7396271;19;20381;-74
2022/05/31 19:53:58;;;;;;;16.25;10.55;;;13.40;99.90;;;;;;7396567;19;20106;-74
2022/05/31 19:56:26;;;;;;;18.30;12.70;;;13.30;99.90;;;;;;7394948;19;20039;-74
2022/05/31 19:58:55;;;;;;;8.27;6.78;;;13.50;99.90;;;;;;7396577;19;20014;-74
2022/05/31 20:01:28;;;;;;;6.50;4.93;;;13.30;99.90;;;;;;7394834;19;20011;-74
2022/05/31 20:03:59;;;;;;;6.95;5.40;;;13.40;99.90;;;;;;7396374;19;20006;-74
2022/05/31 20:06:28;;;;;;;8.32;5.68;;;13.40;99.90;;;;;;7393640;19;20019;-74
2022/05/31 20:11:39;;;;;;;7.82;6.35;;;13.20;99.90;;;;;;7396147;19;20489;-74
2022/05/31 20:14:08;;;;;;;7.30;5.20;;;13.30;99.90;;;;;;7396235;19;20035;-74
2022/05/31 20:16:40;;;;;;;8.32;5.20;;;13.20;99.90;;;;;;7395491;19;20034;-74
2022/05/31 20:19:19;;;;;;;7.30;4.43;;;13.10;99.90;;;;;;7394119;19;20401;-74
2022/05/31 20:21:51;;;;;;;7.75;4.97;;;13.10;99.90;;;;;;7396522;19;20629;-74
2022/05/31 20:24:22;;;;;;;6.45;5.00;;;13.10;99.90;;;;;;7396611;19;20481;-74
2022/05/31 20:26:51;;;;;;;7.05;4.85;;;12.90;99.90;;;;;;7395718;19;20489;-74
2022/05/31 20:29:22;;;;;;;6.60;5.40;;;13.00;99.90;;;;;;7393910;19;20049;-74
2022/05/31 20:31:53;;;;;;;8.35;5.45;;;12.90;99.90;;;;;;7395385;19;20023;-74
2022/05/31 20:34:22;;;;;;;7.63;5.03;;;12.90;99.90;;;;;;7396112;19;20014;-74
2022/05/31 20:36:52;;;;;;;7.80;6.20;;;12.80;99.90;;;;;;7394664;19;20014;-74
2022/05/31 20:39:31;;;;;;;8.15;5.68;;;13.00;99.90;;;;;;7396251;19;20377;-74
2022/05/31 20:42:03;;;;;;;7.88;5.47;;;13.00;99.90;;;;;;7394380;19;20010;-73
2022/05/31 20:44:34;;;;;;;7.53;5.13;;;12.70;99.90;;;;;;7388820;19;20516;-74
2022/05/31 20:47:09;;;;;;;7.10;5.65;;;12.80;99.90;;;;;;7395925;19;20022;-74
2022/05/31 20:49:40;;;;;;;;;;;12.70;99.90;;;;;;7396334;19;20074;-74
2022/05/31 20:52:10;;;;;;;9.73;6.07;;;12.60;99.90;;;;;;7393511;19;19945;-74
2022/05/31 20:54:41;;;;;;;9.38;6.05;;;12.60;99.90;;;;;;7395187;19;20018;-74
2022/05/31 20:57:25;;;;;;;8.05;6.00;;;12.50;99.90;;;;;;7391991;19;20015;-74
2022/05/31 20:59:55;;;;;;;9.13;6.22;;;12.50;99.90;;;;;;7396882;19;20018;-74
2022/05/31 21:02:33;;;;;;;7.88;5.82;;;12.50;99.90;;;;;;7392644;19;20512;-75
2022/05/31 21:05:06;;;;;;;8.88;7.00;;;12.40;99.90;;;;;;7395484;19;20014;-74
2022/05/31 21:07:37;;;;;;;10.40;6.57;;;12.30;99.90;;;;;;7395579;19;20025;-74
2022/05/31 21:10:12;;;;;;;9.20;6.32;;;12.40;99.90;;;;;;7390729;19;20015;-74
2022/05/31 21:12:42;;;;;;;10.60;6.43;;;12.30;99.90;;;;;;7392472;19;20018;-74
2022/05/31 21:15:14;;;;;;;7.53;6.03;;;12.30;99.90;;;;;;7392536;19;20022;-74
2022/05/31 21:17:47;;;;;;;7.00;6.07;;;12.30;99.90;;;;;;7392931;19;20029;-74
2022/05/31 21:20:17;;;;;;;9.15;6.38;;;12.30;99.90;;;;;;7392222;19;20014;-74
2022/05/31 21:22:49;;;;;;;9.27;6.63;;;12.20;99.90;;;;;;7392576;19;20033;-74
2022/05/31 21:25:30;;;;;;;9.05;5.90;;;12.10;99.90;;;;;;7395111;19;20433;-74
2022/05/31 21:28:02;;;;;;;8.25;6.03;;;12.10;99.90;;;;;;7392892;19;20456;-74
2022/05/31 21:30:34;;;;;;;7.97;6.45;;;12.00;99.90;;;;;;7386351;19;20074;-74
2022/05/31 21:33:07;;;;;;;9.25;6.78;;;12.10;99.90;;;;;;7386488;19;20014;-74
2022/05/31 21:35:39;;;;;;;8.90;6.65;;;12.10;99.90;;;;;;7389079;19;20022;-74
2022/05/31 21:38:13;;;;;;;9.93;7.05;;;12.00;99.90;;;;;;7389996;19;20023;-74
2022/05/31 21:43:28;;;;;;;10.55;6.82;;;12.00;99.90;;;;;;7392883;19;20115;-74
2022/05/31 21:45:58;;;;;;;10.32;7.10;;;12.00;99.90;;;;;;7386049;19;20070;-74
2022/05/31 21:48:31;;;;;;;10.18;7.57;;;12.00;99.90;;;;;;7392602;19;20015;-74
2022/05/31 21:51:04;;;;;;;9.13;7.40;;;11.90;99.90;;;;;;7386727;19;20022;-74
2022/05/31 21:53:36;;;;;;;11.40;7.55;;;12.00;99.90;;;;;;7393600;19;20015;-74
2022/05/31 21:56:10;;;;;;;11.68;7.47;;;12.10;99.90;;;;;;7389068;19;20014;-74
2022/05/31 21:58:41;;;;;;;13.02;9.43;;;12.20;99.90;;;;;;7392480;19;20078;-74
2022/05/31 22:01:14;;;;;;;11.73;9.10;;;11.90;99.90;;;;;;7394166;19;20022;-74
2022/05/31 22:03:51;;;;;;;13.05;9.82;;;11.90;99.90;;;;;;7392007;19;20010;-74
2022/05/31 22:06:23;;;;;;;13.25;10.25;;;11.90;99.90;;;;;;7392321;19;20026;-74
2022/05/31 22:08:54;;;;;;;11.68;9.35;;;12.00;99.90;;;;;;7392362;19;20334;-75
2022/05/31 22:11:26;;;;;;;11.60;8.90;;;11.80;99.90;;;;;;7392419;19;20377;-74
2022/05/31 22:13:57;;;;;;;12.40;8.88;;;11.90;99.90;;;;;;7385260;19;20014;-74
2022/05/31 22:16:27;;;;;;;12.05;8.85;;;11.90;99.90;;;;;;7386285;19;20034;-74
2022/05/31 22:19:00;;;;;;;11.93;8.55;;;11.80;99.90;;;;;;7393491;19;20027;-74
2022/05/31 22:21:30;;;;;;;11.40;8.10;;;12.00;99.90;;;;;;7394239;19;20022;-74
2022/05/31 22:24:01;;;;;;;10.25;7.85;;;11.80;99.90;;;;;;7389871;19;20021;-73
2022/05/31 22:26:34;;;;;;;11.50;7.93;;;11.70;99.90;;;;;;7392235;19;20025;-74
2022/05/31 22:29:05;;;;;;;9.60;7.95;;;11.80;99.90;;;;;;7392613;19;20078;-73
2022/05/31 22:31:35;;;;;;;10.70;7.60;;;11.50;99.90;;;;;;7391816;19;21604;-73
2022/05/31 22:34:08;;;;;;;11.38;7.85;;;11.80;99.90;;;;;;7392923;19;20014;-74
2022/05/31 22:36:38;;;;;;;10.13;7.53;;;11.50;99.90;;;;;;7391222;19;20642;-73
2022/05/31 22:39:10;;;;;;;11.95;8.10;;;12.00;99.90;;;;;;7391023;19;20015;-73
2022/05/31 22:41:41;;;;;;;11.55;8.00;;;12.00;99.90;;;;;;7391290;19;20018;-74
2022/05/31 22:44:14;;;;;;;11.13;7.57;;;11.70;99.90;;;;;;7398150;19;20067;-73
2022/05/31 22:46:48;;;;;;;10.15;7.80;;;11.70;99.90;;;;;;7400032;19;20019;-74
2022/05/31 22:49:24;;;;;;;10.90;7.55;;;11.60;99.90;;;;;;7397972;19;20026;-73
2022/05/31 22:51:54;;;;;;;10.57;7.63;;;11.60;99.90;;;;;;7399323;19;20010;-74
2022/05/31 22:54:24;;;;;;;10.45;7.97;;;11.60;99.90;;;;;;7396569;19;20019;-73
2022/05/31 22:56:54;;;;;;;9.90;7.40;;;11.50;99.90;;;;;;7396228;19;20110;-73
2022/05/31 22:59:28;;;;;;;12.23;8.73;;;11.60;99.90;;;;;;7397867;19;20007;-73
2022/05/31 23:01:59;;;;;;;12.07;8.63;;;11.40;99.90;;;;;;7399286;19;20023;-74
2022/05/31 23:04:38;;;;;;;11.10;8.27;;;11.50;99.90;;;;;;7396601;19;20014;-74
2022/05/31 23:07:09;;;;;;;12.20;8.07;;;11.70;99.90;;;;;;7400199;19;20025;-73
2022/05/31 23:09:44;;;;;;;13.02;8.70;;;11.40;99.90;;;;;;7399484;19;20081;-73
2022/05/31 23:12:14;;;;;;;11.35;8.32;;;;;;;;;;7399376;19;20019;-73
2022/05/31 23:14:43;;;;;;;12.57;8.68;;;11.40;99.90;;;;;;7399519;19;20021;-73
2022/05/31 23:17:15;;;;;;;12.82;8.45;;;11.40;99.90;;;;;;7396137;19;20015;-74
2022/05/31 23:19:48;;;;;;;10.93;8.10;;;11.40;99.90;;;;;;7399226;19;20383;-73
2022/05/31 23:25:06;;;;;;;12.18;8.60;;;11.30;99.90;;;;;;7394886;19;20015;-73
2022/05/31 23:27:39;;;;;;;13.18;9.07;;;11.30;99.90;;;;;;7396677;19;20018;-74
2022/05/31 23:32:56;;;;;;;12.20;9.10;;;11.30;99.90;;;;;;7395383;19;20404;-73
2022/05/31 23:35:30;;;;;;;13.25;9.00;;;11.40;99.90;;;;;;7398431;19;20357;-73
2022/05/31 23:38:02;;;;;;;12.32;9.35;;;11.40;99.90;;;;;;7396930;19;20480;-73
2022/05/31 23:40:33;;;;;;;12.70;8.90;;;11.40;99.90;;;;;;7395032;19;20505;-73
2022/05/31 23:43:06;;;;;;;16.58;9.45;;;11.30;99.90;;;;;;7396237;19;20014;-73
2022/05/31 23:45:36;;;;;;;12.38;8.85;;;11.70;99.90;;;;;;7398471;19;20376;-73
2022/05/31 23:48:07;;;;;;;12.40;9.25;;;11.40;99.90;;;;;;7396592;19;20020;-74
2022/05/31 23:50:45;;;;;;;12.65;9.35;;;11.30;99.90;;;;;;7394919;19;20043;-74
2022/05/31 23:53:17;;;;;;;13.00;8.95;;;11.30;99.90;;;;;;7393550;19;20022;-73
2022/05/31 23:55:48;;;;;;;13.50;9.25;;;11.30;99.90;;;;;;7393212;19;20016;-74
2022/05/31 23:58:20;;;;;;;14.63;9.27;;;11.30;99.90;;;;;;7392321;19;20021;-73
